TAF and METAR

Decoding for American and Canadian METARs and TAFs is not fully implemented.

Could not understand the following METAR

K0CO 232312Z AUTO 28023G29KT 10SM SCT090 09/01 A3039 RMK AO2
No TAF available for Empire